| time (UTC) | temp F | wind direction | speed MPH | gust MPH | rain 1hr in | rain 24hr in | rain mn in | humidity % | barometer mb |
| 20260904034536 | 71 | 265 | 2.0 | 8.0 | 0.00 | 0.11 | 0.10 | 87 | 1012.7 |
| 20260904033039 | 71 | 307 | 3.0 | 8.0 | 0.01 | 0.11 | 0.10 | 85 | 1013.7 |
| 20260904031531 | 72 | 184 | 2.0 | 11.0 | 0.01 | 0.11 | 0.10 | 85 | 1013.9 |
| 20260904030033 | 72 | 277 | 6.0 | 15.0 | 0.01 | 0.11 | 0.10 | 86 | 1014.7 |
| 20260904024536 | 73 | 293 | 7.0 | 15.0 | 0.01 | 0.11 | 0.10 | 85 | 1015.3 |
| 20260904023035 | 74 | 309 | 9.0 | 19.0 | 0.00 | 0.10 | 0.09 | 84 | 1015.5 |
| 20260904021536 | 75 | 285 | 10.0 | 17.0 | 0.00 | 0.10 | 0.09 | 87 | 1015.8 |
| 20260904020031 | 75 | 270 | 7.0 | 14.0 | 0.00 | 0.10 | 0.09 | 91 | 1015.5 |
| 20260904014539 | 75 | 272 | 6.0 | 11.0 | 0.00 | 0.10 | 0.09 | 91 | 1015.1 |
| 20260904013035 | 75 | 313 | 4.0 | 9.0 | 0.00 | 0.10 | 0.09 | 91 | 1014.8 |
| 20260904011541 | 75 | 310 | 3.0 | 5.0 | 0.00 | 0.10 | 0.09 | 91 | 1014.7 |
| 20260904010044 | 75 | 306 | 1.0 | 3.0 | 0.00 | 0.10 | 0.09 | 91 | 1014.3 |
| 20260904004545 | 76 | 306 | 1.0 | 4.0 | 0.00 | 0.11 | 0.09 | 89 | 1014.1 |
| 20260904003035 | 76 | 342 | 2.0 | 9.0 | 0.01 | 0.11 | 0.09 | 88 | 1014.7 |
| 20260904001533 | 76 | 268 | 3.0 | 8.0 | 0.01 | 0.11 | 0.09 | 88 | 1014.8 |
| 20260904000036 | 76 | 272 | 4.0 | 8.0 | 0.01 | 0.11 | 0.09 | 88 | 1014.6 |
| 20260903234542 | 77 | 276 | 2.0 | 5.0 | 0.01 | 0.11 | 0.09 | 88 | 1014.6 |
| 20260903233035 | 78 | 290 | 3.0 | 7.0 | 0.00 | 0.10 | 0.08 | 84 | 1014.4 |
| 20260903231536 | 79 | 279 | 2.0 | 6.0 | 0.00 | 0.10 | 0.08 | 83 | 1014.3 |
| 20260903230035 | 80 | 304 | 4.0 | 8.0 | 0.00 | 0.10 | 0.08 | 82 | 1014.4 |
| 20260903224536 | 80 | 317 | 4.0 | 8.0 | 0.00 | 0.11 | 0.08 | 82 | 1014.3 |
| 20260903223038 | 80 | 299 | 2.0 | 4.0 | 0.00 | 0.11 | 0.08 | 81 | 1014.0 |
| 20260903221536 | 80 | 318 | 2.0 | 5.0 | 0.00 | 0.11 | 0.08 | 81 | 1014.3 |
| 20260903220041 | 81 | 300 | 2.0 | 4.0 | 0.00 | 0.11 | 0.08 | 80 | 1013.7 |
| 20260903214541 | 81 | 302 | 0.0 | 6.0 | 0.00 | 0.11 | 0.08 | 80 | 1013.3 |
| 20260903213040 | 82 | 240 | 3.0 | 7.0 | 0.00 | 0.11 | 0.08 | 77 | 1013.4 |
| 20260903211602 | 82 | 265 | 4.0 | 8.0 | 0.01 | 0.11 | 0.08 | 76 | 1013.3 |
| 20260903210034 | 83 | 254 | 5.0 | 8.0 | 0.01 | 0.11 | 0.08 | 74 | 1013.4 |
| 20260903204535 | 84 | 286 | 4.0 | 8.0 | 0.01 | 0.12 | 0.08 | 72 | 1013.2 |
| 20260903203033 | 84 | 252 | 6.0 | 11.0 | 0.01 | 0.12 | 0.08 | 70 | 1013.0 |
| 20260903201537 | 84 | 267 | 8.0 | 12.0 | 0.00 | 0.11 | 0.07 | 69 | 1013.3 |
| 20260903200036 | 84 | 284 | 5.0 | 10.0 | 0.00 | 0.11 | 0.07 | 69 | 1013.6 |
| 20260903194536 | 84 | 242 | 9.0 | 14.0 | 0.00 | 0.12 | 0.07 | 69 | 1013.6 |
| 20260903193036 | 84 | 261 | 7.0 | 12.0 | 0.00 | 0.12 | 0.07 | 69 | 1013.8 |
| 20260903191535 | 83 | 296 | 7.0 | 13.0 | 0.00 | 0.12 | 0.07 | 70 | 1013.9 |
| 20260903190038 | 83 | 280 | 6.0 | 14.0 | 0.00 | 0.12 | 0.07 | 70 | 1014.2 |
| 20260903184537 | 83 | 360 | 9.0 | 15.0 | 0.00 | 0.13 | 0.07 | 68 | 1014.3 |
| 20260903183036 | 83 | 287 | 9.0 | 15.0 | 0.01 | 0.13 | 0.07 | 70 | 1014.4 |
| 20260903181533 | 82 | 278 | 7.0 | 13.0 | 0.01 | 0.13 | 0.07 | 71 | 1014.7 |
| 20260903180036 | 82 | 330 | 9.0 | 14.0 | 0.01 | 0.13 | 0.07 | 70 | 1014.9 |
| 20260903174553 | 82 | 323 | 9.0 | 17.0 | 0.01 | 0.15 | 0.07 | 71 | 1015.1 |
| 20260903173039 | 81 | 302 | 9.0 | 15.0 | 0.00 | 0.14 | 0.06 | 72 | 1015.2 |
| 20260903171535 | 80 | 308 | 9.0 | 17.0 | 0.00 | 0.14 | 0.06 | 73 | 1015.3 |
| 20260903170058 | 79 | 271 | 10.0 | 16.0 | 0.00 | 0.14 | 0.06 | 73 | 1015.4 |
| 20260903164541 | 80 | 320 | 9.0 | 16.0 | 0.00 | 0.15 | 0.06 | 72 | 1015.5 |
| 20260903163034 | 79 | 279 | 8.0 | 19.0 | 0.01 | 0.15 | 0.06 | 76 | 1015.8 |
| 20260903161534 | 78 | 269 | 10.0 | 17.0 | 0.01 | 0.15 | 0.06 | 75 | 1016.0 |
| 20260903160034 | 78 | 263 | 9.0 | 15.0 | 0.01 | 0.15 | 0.06 | 76 | 1016.2 |
| 20260903154538 | 77 | 288 | 11.0 | 18.0 | 0.01 | 0.18 | 0.06 | 74 | 1016.4 |
| 20260903153036 | 77 | 274 | 8.0 | 17.0 | 0.00 | 0.17 | 0.05 | 76 | 1016.6 |
| 20260903151547 | 76 | 291 | 9.0 | 16.0 | 0.00 | 0.17 | 0.05 | 78 | 1016.4 |
| 20260903150034 | 75 | 321 | 5.0 | 12.0 | 0.00 | 0.17 | 0.05 | 82 | 1016.5 |
| 20260903144535 | 74 | 313 | 4.0 | 10.0 | 0.01 | 0.19 | 0.05 | 81 | 1016.4 |
| 20260903143037 | 74 | 288 | 4.0 | 9.0 | 0.01 | 0.19 | 0.05 | 82 | 1016.0 |
| 20260903141535 | 72 | 29 | 2.0 | 7.0 | 0.01 | 0.19 | 0.05 | 85 | 1016.2 |
| 20260903140034 | 70 | 305 | 6.0 | 18.0 | 0.01 | 0.19 | 0.05 | 88 | 1016.2 |
| 20260903134535 | 69 | 254 | 10.0 | 18.0 | 0.00 | 0.20 | 0.04 | 88 | 1016.5 |
| 20260903133037 | 68 | 304 | 9.0 | 16.0 | 0.00 | 0.20 | 0.04 | 90 | 1017.1 |
| 20260903131534 | 67 | 262 | 6.0 | 15.0 | 0.00 | 0.20 | 0.04 | 91 | 1017.3 |
| 20260903130036 | 66 | 289 | 9.0 | 17.0 | 0.01 | 0.20 | 0.04 | 93 | 1017.9 |
| 20260903124539 | 67 | 297 | 11.0 | 23.0 | 0.01 | 0.20 | 0.04 | 94 | 1018.9 |
| 20260903123031 | 67 | 348 | 8.0 | 14.0 | 0.01 | 0.20 | 0.04 | 94 | 1018.6 |
| 20260903121536 | 67 | 289 | 3.0 | 9.0 | 0.01 | 0.20 | 0.04 | 94 | 1017.5 |
| 20260903120034 | 67 | 303 | 2.0 | 6.0 | 0.00 | 0.19 | 0.03 | 94 | 1016.9 |
| 20260903114533 | 67 | 294 | 5.0 | 9.0 | 0.00 | 0.19 | 0.03 | 94 | 1017.1 |
| 20260903113032 | 67 | 301 | 4.0 | 8.0 | 0.00 | 0.19 | 0.03 | 95 | 1017.2 |
| 20260903111557 | 67 | 342 | 3.0 | 7.0 | 0.00 | 0.19 | 0.03 | 95 | 1017.0 |
| 20260903110038 | 66 | 279 | 5.0 | 10.0 | 0.01 | 0.19 | 0.03 | 95 | 1016.7 |
| 20260903104540 | 66 | 360 | 3.0 | 7.0 | 0.01 | 0.19 | 0.03 | 95 | 1016.6 |
| 20260903103034 | 66 | 287 | 3.0 | 9.0 | 0.01 | 0.19 | 0.03 | 96 | 1016.2 |
| 20260903101534 | 65 | 307 | 1.0 | 3.0 | 0.01 | 0.19 | 0.03 | 97 | 1016.0 |
| 20260903100037 | 66 | 0 | 0.0 | 3.0 | 0.00 | 0.18 | 0.02 | 97 | 1015.6 |
| 20260903094532 | 66 | 148 | 0.0 | 3.0 | 0.00 | 0.18 | 0.02 | 97 | 1015.9 |
| 20260903093041 | 66 | 148 | 0.0 | 2.0 | 0.00 | 0.18 | 0.02 | 97 | 1017.0 |
| 20260903091534 | 66 | 207 | 0.0 | 1.0 | 0.01 | 0.18 | 0.02 | 97 | 1017.7 |
| 20260903090035 | 66 | 207 | 0.0 | 5.0 | 0.01 | 0.18 | 0.02 | 97 | 1018.3 |
| 20260903084536 | 66 | 52 | 0.0 | 3.0 | 0.01 | 0.18 | 0.02 | 97 | 1018.6 |
| 20260903083034 | 66 | 0 | 0.0 | 2.0 | 0.01 | 0.18 | 0.02 | 96 | 1018.2 |
| 20260903081535 | 66 | 0 | 0.0 | 2.0 | 0.00 | 0.17 | 0.01 | 96 | 1018.0 |
| 20260903080034 | 66 | 0 | 0.0 | 5.0 | 0.00 | 0.17 | 0.01 | 96 | 1018.2 |
| 20260903074537 | 66 | 346 | 2.0 | 6.0 | 0.00 | 0.17 | 0.01 | 96 | 1018.0 |
| 20260903073043 | 66 | 0 | 1.0 | 4.0 | 0.00 | 0.17 | 0.01 | 96 | 1017.5 |
| 20260903071533 | 66 | 173 | 3.0 | 10.0 | 0.01 | 0.17 | 0.01 | 96 | 1017.7 |
| 20260903070042 | 66 | 75 | 2.0 | 9.0 | 0.01 | 0.17 | 0.01 | 96 | 1017.5 |
| 20260903064533 | 66 | 274 | 3.0 | 6.0 | 0.01 | 0.44 | 0.01 | 96 | 1017.6 |
| 20260903063032 | 66 | 105 | 4.0 | 8.0 | 0.01 | 0.44 | 0.01 | 95 | 1016.0 |
| 20260903061553 | 67 | 288 | 0.0 | 4.0 | 0.00 | 0.43 | 0.00 | 95 | 1017.4 |
| 20260903060036 | 67 | 246 | 2.0 | 6.0 | 0.00 | 0.43 | 0.00 | 93 | 1018.6 |
| 20260903054535 | 68 | 181 | 3.0 | 10.0 | 0.00 | 1.05 | 0.00 | 91 | 1017.4 |
| 20260903053035 | 68 | 98 | 3.0 | 10.0 | 0.00 | 1.05 | 0.00 | 91 | 1017.6 |
| 20260903051537 | 70 | 92 | 4.0 | 8.0 | 0.00 | 1.05 | 0.00 | 87 | 1016.5 |
| 20260903050039 | 70 | 0 | 2.0 | 7.0 | 0.00 | 1.05 | 0.00 | 86 | 1016.4 |
| 20260903044530 | 70 | 111 | 2.0 | 7.0 | 0.00 | 1.05 | 0.00 | 87 | 1016.2 |
| 20260903043039 | 71 | 171 | 2.0 | 7.0 | 0.00 | 1.05 | 0.00 | 86 | 1016.4 |
| 20260903041539 | 70 | 79 | 1.0 | 3.0 | 0.00 | 1.05 | 0.00 | 88 | 1017.0 |
| 20260903040034 | 70 | 97 | 2.0 | 8.0 | 0.01 | 1.05 | 0.00 | 87 | 1016.6 |